createdAt,value
2022-11-27T00:00:48.624Z,965.96
2022-11-27T00:01:48.606Z,965.93
2022-11-27T00:02:48.656Z,965.93
2022-11-27T00:03:48.611Z,965.91
2022-11-27T00:04:48.582Z,965.88
2022-11-27T00:05:48.533Z,965.85
2022-11-27T00:06:48.515Z,965.81
2022-11-27T00:07:48.588Z,965.78
2022-11-27T00:08:48.478Z,965.76
2022-11-27T00:09:48.461Z,965.73
2022-11-27T00:10:48.444Z,965.73
2022-11-27T00:11:48.423Z,965.75
2022-11-27T00:12:48.405Z,965.75
2022-11-27T00:13:48.387Z,965.73
2022-11-27T00:14:49.634Z,965.76
2022-11-27T00:15:48.373Z,965.73
2022-11-27T00:16:48.339Z,965.72
2022-11-27T00:17:48.312Z,965.73
2022-11-27T00:18:48.297Z,965.72
2022-11-27T00:19:48.275Z,965.75
2022-11-27T00:20:48.282Z,965.74
2022-11-27T00:21:48.240Z,965.78
2022-11-27T00:22:48.220Z,965.75
2022-11-27T00:23:48.203Z,965.76
2022-11-27T00:24:48.183Z,965.72
2022-11-27T00:25:48.172Z,965.66
2022-11-27T00:26:48.150Z,965.67
2022-11-27T00:27:48.130Z,965.68
2022-11-27T00:28:48.115Z,965.66
2022-11-27T00:29:48.093Z,965.67
2022-11-27T00:30:48.120Z,965.69
2022-11-27T00:31:48.056Z,965.7
2022-11-27T00:32:48.037Z,965.72
2022-11-27T00:33:48.019Z,965.76
2022-11-27T00:34:48.002Z,965.77
2022-11-27T00:35:47.985Z,965.82
2022-11-27T00:36:48.487Z,965.81
2022-11-27T00:37:47.963Z,965.81
2022-11-27T00:38:47.926Z,965.78
2022-11-27T00:39:47.910Z,965.84
2022-11-27T00:40:47.889Z,965.83
2022-11-27T00:41:47.872Z,965.82
2022-11-27T00:42:47.852Z,965.8
2022-11-27T00:43:47.836Z,965.76
2022-11-27T00:44:47.817Z,965.77
2022-11-27T00:45:47.798Z,965.73
2022-11-27T00:46:47.827Z,965.71
2022-11-27T00:47:47.760Z,965.71
2022-11-27T00:48:47.741Z,965.65
2022-11-27T00:49:47.723Z,965.7
2022-11-27T00:50:47.707Z,965.66
2022-11-27T00:51:47.694Z,965.66
2022-11-27T00:52:47.693Z,965.64
2022-11-27T00:53:47.651Z,965.6
2022-11-27T00:54:47.631Z,965.58
2022-11-27T00:55:47.613Z,965.59
2022-11-27T00:56:47.593Z,965.55
2022-11-27T00:57:47.576Z,965.51
2022-11-27T00:58:47.555Z,965.47
2022-11-27T00:59:47.543Z,965.45
2022-11-27T01:00:47.518Z,965.5
2022-11-27T01:01:47.582Z,965.44
2022-11-27T01:02:47.530Z,965.45
2022-11-27T01:03:47.465Z,965.47
2022-11-27T01:04:47.445Z,965.49
2022-11-27T01:05:47.428Z,965.48
2022-11-27T01:06:47.413Z,965.41
2022-11-27T01:07:47.404Z,965.41
2022-11-27T01:08:47.397Z,965.37
2022-11-27T01:09:47.354Z,965.36
2022-11-27T01:10:50.744Z,965.31
2022-11-27T01:11:47.313Z,965.29
2022-11-27T01:12:47.295Z,965.25
2022-11-27T01:13:47.276Z,965.22
2022-11-27T01:14:47.258Z,965.19
2022-11-27T01:15:47.247Z,965.17
2022-11-27T01:16:47.220Z,965.2
2022-11-27T01:17:47.200Z,965.11
2022-11-27T01:18:47.182Z,965.09
2022-11-27T01:19:47.162Z,965.04
2022-11-27T01:20:47.144Z,965.06
2022-11-27T01:21:47.125Z,965.01
2022-11-27T01:22:47.107Z,965
2022-11-27T01:23:47.091Z,964.96
2022-11-27T01:24:47.095Z,964.97
2022-11-27T01:25:47.048Z,964.93
2022-11-27T01:26:47.032Z,964.93
2022-11-27T01:27:47.010Z,964.87
2022-11-27T01:28:46.993Z,964.87
2022-11-27T01:29:46.972Z,964.87
2022-11-27T01:30:47.043Z,964.86
2022-11-27T01:31:46.976Z,964.86
2022-11-27T01:32:46.915Z,964.85
2022-11-27T01:33:46.898Z,964.81
2022-11-27T01:34:46.879Z,964.83
2022-11-27T01:35:46.857Z,964.8
2022-11-27T01:36:46.838Z,964.78
2022-11-27T01:37:46.958Z,964.75
2022-11-27T01:38:46.938Z,964.79
2022-11-27T01:39:46.915Z,964.79
2022-11-27T01:40:46.924Z,964.81
2022-11-27T01:41:46.881Z,964.85
2022-11-27T01:42:46.861Z,964.85
2022-11-27T01:43:46.849Z,964.84
2022-11-27T01:44:46.824Z,964.85
2022-11-27T01:45:46.802Z,964.87
2022-11-27T01:46:46.804Z,964.89
2022-11-27T01:47:46.771Z,964.93
2022-11-27T01:48:46.747Z,964.94
2022-11-27T01:49:46.723Z,964.95
2022-11-27T01:50:46.707Z,964.97
2022-11-27T01:51:46.687Z,964.96
2022-11-27T01:52:46.668Z,965
2022-11-27T01:53:46.648Z,964.95
2022-11-27T01:54:46.629Z,964.98
2022-11-27T01:55:46.607Z,964.95
2022-11-27T01:56:46.614Z,964.98
2022-11-27T01:57:46.570Z,965
2022-11-27T01:58:46.554Z,965.02
2022-11-27T01:59:46.531Z,965
2022-11-27T02:00:46.514Z,964.97
2022-11-27T02:01:46.516Z,965.01
2022-11-27T02:02:46.526Z,964.99
2022-11-27T02:03:46.458Z,964.97
2022-11-27T02:04:46.440Z,964.99
2022-11-27T02:05:46.416Z,964.97
2022-11-27T02:06:46.400Z,964.93
2022-11-27T02:07:46.419Z,964.93
2022-11-27T02:08:46.375Z,964.92
2022-11-27T02:09:46.340Z,964.89
2022-11-27T02:10:46.321Z,964.91
2022-11-27T02:11:46.301Z,964.87
2022-11-27T02:12:46.308Z,964.86
2022-11-27T02:13:46.264Z,964.85
2022-11-27T02:14:46.243Z,964.86
2022-11-27T02:15:46.260Z,964.81
2022-11-27T02:16:46.204Z,964.82
2022-11-27T02:17:46.184Z,964.78
2022-11-27T02:18:46.165Z,964.76
2022-11-27T02:19:46.145Z,964.79
2022-11-27T02:20:46.124Z,964.76
2022-11-27T02:21:46.107Z,964.73
2022-11-27T02:22:46.085Z,964.71
2022-11-27T02:23:46.071Z,964.71
2022-11-27T02:24:46.052Z,964.69
2022-11-27T02:25:46.034Z,964.68
2022-11-27T02:26:46.009Z,964.68
2022-11-27T02:27:45.991Z,964.67
2022-11-27T02:28:45.973Z,964.58
2022-11-27T02:29:45.952Z,964.59
2022-11-27T02:30:45.966Z,964.56
2022-11-27T02:31:45.989Z,964.52
2022-11-27T02:32:45.893Z,964.56
2022-11-27T02:33:45.873Z,964.52
2022-11-27T02:34:45.855Z,964.56
2022-11-27T02:35:45.835Z,964.5
2022-11-27T02:36:45.814Z,964.48
2022-11-27T02:37:45.802Z,964.5
2022-11-27T02:38:45.775Z,964.45
2022-11-27T02:39:45.757Z,964.49
2022-11-27T02:40:45.734Z,964.46
2022-11-27T02:41:45.719Z,964.49
2022-11-27T02:42:45.813Z,964.51
2022-11-27T02:43:45.678Z,964.56
2022-11-27T02:44:45.657Z,964.51
2022-11-27T02:45:45.638Z,964.52
2022-11-27T02:46:45.673Z,964.47
2022-11-27T02:47:45.601Z,964.47
2022-11-27T02:48:45.579Z,964.44
2022-11-27T02:49:45.561Z,964.45
2022-11-27T02:50:45.542Z,964.43
2022-11-27T02:51:45.522Z,964.39
2022-11-27T02:52:45.501Z,964.39
2022-11-27T02:53:45.482Z,964.37
2022-11-27T02:54:45.465Z,964.38
2022-11-27T02:55:45.443Z,964.4
2022-11-27T02:56:45.425Z,964.42
2022-11-27T02:57:45.405Z,964.48
2022-11-27T02:58:45.508Z,964.49
2022-11-27T02:59:45.365Z,964.52
2022-11-27T03:00:45.347Z,964.48
2022-11-27T03:01:45.387Z,964.52
2022-11-27T03:02:45.341Z,964.56
2022-11-27T03:03:45.286Z,964.56
2022-11-27T03:04:45.776Z,964.55
2022-11-27T03:05:46.786Z,964.56
2022-11-27T03:06:46.768Z,964.52
2022-11-27T03:07:46.790Z,964.55
2022-11-27T03:08:46.728Z,964.54
2022-11-27T03:09:46.711Z,964.56
2022-11-27T03:10:46.691Z,964.53
2022-11-27T03:11:46.670Z,964.54
2022-11-27T03:12:46.650Z,964.48
2022-11-27T03:13:46.627Z,964.51
2022-11-27T03:14:52.530Z,964.47
2022-11-27T03:15:46.765Z,964.46
2022-11-27T03:16:46.573Z,964.48
2022-11-27T03:17:46.552Z,964.47
2022-11-27T03:18:46.546Z,964.46
2022-11-27T03:19:46.513Z,964.48
2022-11-27T03:20:46.494Z,964.52
2022-11-27T03:21:46.472Z,964.47
2022-11-27T03:22:46.454Z,964.5
2022-11-27T03:23:46.434Z,964.51
2022-11-27T03:24:46.416Z,964.54
2022-11-27T03:25:46.395Z,964.55
2022-11-27T03:26:46.376Z,964.53
2022-11-27T03:27:46.357Z,964.57
2022-11-27T03:28:46.337Z,964.52
2022-11-27T03:29:46.319Z,964.58
2022-11-27T03:30:46.315Z,964.6
2022-11-27T03:31:46.465Z,964.61
2022-11-27T03:32:46.266Z,964.6
2022-11-27T03:49:47.731Z,964.55
2022-11-27T03:50:47.592Z,964.53
2022-11-27T03:51:47.572Z,964.54
2022-11-27T03:52:47.546Z,964.53
2022-11-27T03:53:47.526Z,964.54
2022-11-27T03:54:47.505Z,964.54
2022-11-27T03:55:47.486Z,964.45
2022-11-27T03:56:47.462Z,964.47
2022-11-27T03:57:47.442Z,964.48
2022-11-27T03:58:47.421Z,964.48
2022-11-27T03:59:47.400Z,964.49
2022-11-27T04:00:47.378Z,964.48
2022-11-27T04:01:47.398Z,964.49
2022-11-27T04:02:47.338Z,964.47
2022-11-27T04:03:47.367Z,964.46
2022-11-27T04:04:47.298Z,964.44
2022-11-27T04:05:47.399Z,964.42
2022-11-27T04:06:47.257Z,964.43
2022-11-27T04:07:47.266Z,964.39
2022-11-27T04:08:47.218Z,964.36
2022-11-27T04:09:47.198Z,964.35
2022-11-27T04:10:47.176Z,964.36
2022-11-27T04:11:47.156Z,964.33
2022-11-27T04:12:47.136Z,964.33
2022-11-27T04:13:47.117Z,964.3
2022-11-27T04:14:47.096Z,964.33
2022-11-27T04:15:47.119Z,964.33
2022-11-27T04:16:47.057Z,964.3
2022-11-27T04:17:47.037Z,964.3
2022-11-27T04:18:47.015Z,964.28
2022-11-27T04:19:46.998Z,964.22
2022-11-27T04:20:46.976Z,964.24
2022-11-27T04:21:47.073Z,964.26
2022-11-27T04:22:46.936Z,964.24
2022-11-27T04:23:46.918Z,964.25
2022-11-27T04:24:46.895Z,964.16
2022-11-27T04:25:46.877Z,964.2
2022-11-27T04:26:46.855Z,964.15
2022-11-27T04:27:46.837Z,964.15
2022-11-27T04:28:46.815Z,964.13
2022-11-27T04:29:46.798Z,964.18
2022-11-27T04:30:46.775Z,964.16
2022-11-27T04:31:46.819Z,964.16
2022-11-27T04:32:46.734Z,964.15
2022-11-27T04:33:46.718Z,964.12
2022-11-27T04:34:46.697Z,964.08
2022-11-27T04:35:46.678Z,964.09
2022-11-27T04:36:46.656Z,964.08
2022-11-27T04:37:46.755Z,964.09
2022-11-27T04:38:46.617Z,964.11
2022-11-27T04:39:46.605Z,964.1
2022-11-27T04:40:46.577Z,964.15
2022-11-27T04:41:46.558Z,964.11
2022-11-27T04:42:46.541Z,964.08
2022-11-27T04:43:46.518Z,964.1
2022-11-27T04:44:46.501Z,964.1
2022-11-27T04:45:46.481Z,964.08
2022-11-27T04:46:46.501Z,964.11
2022-11-27T04:47:46.439Z,964.12
2022-11-27T04:48:46.421Z,964.1
2022-11-27T04:49:46.400Z,964.1
2022-11-27T04:50:46.385Z,964.06
2022-11-27T04:51:46.358Z,964.03
2022-11-27T04:52:46.342Z,964.06
2022-11-27T04:53:46.435Z,964.01
2022-11-27T04:54:46.300Z,963.99
2022-11-27T04:55:46.279Z,964.02
2022-11-27T04:56:46.263Z,963.98
2022-11-27T04:57:46.240Z,964.03
2022-11-27T04:58:46.222Z,964.05
2022-11-27T04:59:46.200Z,964.04
2022-11-27T05:00:46.222Z,964.02
2022-11-27T05:01:46.162Z,964.05
2022-11-27T05:02:46.194Z,964.08
2022-11-27T05:03:46.121Z,964.05
2022-11-27T05:04:46.103Z,964.06
2022-11-27T05:05:46.495Z,964.01
2022-11-27T05:06:46.476Z,964.02
2022-11-27T05:07:46.492Z,964
2022-11-27T05:08:46.438Z,963.95
2022-11-27T05:09:46.537Z,963.93
2022-11-27T05:10:46.396Z,963.92
2022-11-27T05:11:46.376Z,963.93
2022-11-27T05:12:46.358Z,963.94
2022-11-27T05:13:46.336Z,963.96
2022-11-27T05:14:46.317Z,963.96
2022-11-27T05:15:46.305Z,964.01
2022-11-27T05:16:46.279Z,963.99
2022-11-27T05:17:46.256Z,964.03
2022-11-27T05:18:46.238Z,964.02
2022-11-27T05:19:46.217Z,964.01
2022-11-27T05:20:46.202Z,964.05
2022-11-27T05:21:46.177Z,963.99
2022-11-27T05:22:46.175Z,964.06
2022-11-27T05:23:46.139Z,963.99
2022-11-27T05:24:46.754Z,963.98
2022-11-27T05:25:46.854Z,963.96
2022-11-27T05:26:46.716Z,964.01
2022-11-27T05:27:46.702Z,963.98
2022-11-27T05:28:46.675Z,963.97
2022-11-27T05:29:46.654Z,964.02
2022-11-27T05:30:46.635Z,964.01
2022-11-27T05:31:46.705Z,963.95
2022-11-27T05:32:46.595Z,963.97
2022-11-27T05:33:46.576Z,964.01
2022-11-27T05:34:46.556Z,964
2022-11-27T05:35:46.538Z,963.98
2022-11-27T05:36:46.515Z,964
2022-11-27T05:37:46.500Z,964.03
2022-11-27T05:38:46.478Z,964.02
2022-11-27T05:39:46.459Z,963.98
2022-11-27T05:40:46.438Z,964
2022-11-27T05:41:46.538Z,964.05
2022-11-27T05:42:46.400Z,964.01
2022-11-27T05:43:46.382Z,964.06
2022-11-27T05:44:46.361Z,964.07
2022-11-27T05:45:46.342Z,964.1
2022-11-27T05:46:46.352Z,964.1
2022-11-27T05:47:46.303Z,964.15
2022-11-27T05:48:46.284Z,964.11
2022-11-27T05:49:46.263Z,964.08
2022-11-27T05:50:46.242Z,964.14
2022-11-27T05:51:50.895Z,964.1
2022-11-27T05:52:46.202Z,964.12
2022-11-27T05:53:46.184Z,964.05
2022-11-27T05:54:46.162Z,964.05
2022-11-27T05:55:46.145Z,964.01
2022-11-27T05:56:46.124Z,963.99
2022-11-27T05:57:46.226Z,963.94
2022-11-27T05:58:46.086Z,963.93
2022-11-27T05:59:46.070Z,963.9
2022-11-27T06:00:46.048Z,963.89
2022-11-27T06:01:46.076Z,963.9
2022-11-27T06:02:46.095Z,963.95
2022-11-27T06:03:46.112Z,963.97
2022-11-27T06:04:45.967Z,963.96
2022-11-27T06:05:45.948Z,963.92
2022-11-27T06:06:45.930Z,963.88
2022-11-27T06:07:45.983Z,963.86
2022-11-27T06:08:45.889Z,963.86
2022-11-27T06:09:45.869Z,963.84
2022-11-27T06:10:45.850Z,963.84
2022-11-27T06:11:45.832Z,963.77
2022-11-27T06:12:45.810Z,963.77
2022-11-27T06:13:45.911Z,963.77
2022-11-27T06:14:45.771Z,963.74
2022-11-27T06:15:45.753Z,963.73
2022-11-27T06:16:45.796Z,963.75
2022-11-27T06:17:45.713Z,963.78
2022-11-27T06:18:45.692Z,963.76
2022-11-27T06:19:45.676Z,963.82
2022-11-27T06:20:49.013Z,963.83
2022-11-27T06:21:45.635Z,963.83
2022-11-27T06:22:45.619Z,963.9
2022-11-27T06:23:45.594Z,963.89
2022-11-27T06:24:45.576Z,963.86
2022-11-27T06:25:45.555Z,963.92
2022-11-27T06:26:45.538Z,963.95
2022-11-27T06:27:45.515Z,963.89
2022-11-27T06:28:45.496Z,963.94
2022-11-27T06:29:45.591Z,963.91
2022-11-27T06:30:45.459Z,963.89
2022-11-27T06:31:45.471Z,963.85
2022-11-27T06:32:45.419Z,963.86
2022-11-27T06:33:45.398Z,963.86
2022-11-27T06:34:45.381Z,963.87
2022-11-27T06:35:45.358Z,963.88
2022-11-27T06:36:45.341Z,963.89
2022-11-27T06:37:45.319Z,963.87
2022-11-27T06:38:45.301Z,963.9
2022-11-27T06:39:45.279Z,963.89
2022-11-27T06:40:45.262Z,963.88
2022-11-27T06:41:45.241Z,963.87
2022-11-27T06:42:45.222Z,963.86
2022-11-27T06:43:45.202Z,963.82
2022-11-27T06:44:45.184Z,963.82
2022-11-27T06:45:45.314Z,963.79
2022-11-27T06:46:45.144Z,963.83
2022-11-27T06:47:45.124Z,963.87
2022-11-27T06:48:45.106Z,963.88
2022-11-27T06:49:45.084Z,963.88
2022-11-27T06:50:45.068Z,963.89
2022-11-27T06:51:45.048Z,963.88
2022-11-27T06:52:45.028Z,963.84
2022-11-27T06:53:45.029Z,963.88
2022-11-27T06:54:44.988Z,963.86
2022-11-27T06:55:44.967Z,963.85
2022-11-27T06:56:44.951Z,963.81
2022-11-27T06:57:44.934Z,963.82
2022-11-27T06:58:44.915Z,963.82
2022-11-27T06:59:44.896Z,963.84
2022-11-27T07:00:44.915Z,963.77
2022-11-27T07:01:44.982Z,963.77
2022-11-27T07:02:44.834Z,963.79
2022-11-27T07:03:44.813Z,963.75
2022-11-27T07:04:44.794Z,963.79
2022-11-27T07:05:44.773Z,963.68
2022-11-27T07:06:44.755Z,963.7
2022-11-27T07:07:44.787Z,963.69
2022-11-27T07:08:44.717Z,963.64
2022-11-27T07:09:44.696Z,963.62
2022-11-27T07:10:44.678Z,963.55
2022-11-27T07:11:44.658Z,963.56
2022-11-27T07:12:44.640Z,963.54
2022-11-27T07:13:44.619Z,963.55
2022-11-27T07:14:44.599Z,963.49
2022-11-27T07:15:44.580Z,963.46
2022-11-27T07:16:44.589Z,963.45
2022-11-27T07:17:44.665Z,963.42
2022-11-27T07:18:44.520Z,963.44
2022-11-27T07:19:44.503Z,963.43
2022-11-27T07:20:44.482Z,963.41
2022-11-27T07:21:44.465Z,963.39
2022-11-27T07:22:44.443Z,963.42
2022-11-27T07:23:44.425Z,963.41
2022-11-27T07:24:44.404Z,963.38
2022-11-27T07:25:44.388Z,963.35
2022-11-27T07:26:44.367Z,963.38
2022-11-27T07:27:44.347Z,963.35
2022-11-27T07:28:44.326Z,963.29
2022-11-27T07:29:44.310Z,963.34
2022-11-27T07:30:44.288Z,963.33
2022-11-27T07:31:44.325Z,963.36
2022-11-27T07:32:44.252Z,963.36
2022-11-27T07:33:44.351Z,963.36
2022-11-27T07:34:44.213Z,963.4
2022-11-27T07:35:44.195Z,963.41
2022-11-27T07:36:44.173Z,963.35
2022-11-27T07:37:44.153Z,963.36
2022-11-27T07:38:44.135Z,963.37
2022-11-27T07:40:01.727Z,963.32
2022-11-27T07:40:44.094Z,963.32
2022-11-27T07:41:44.078Z,963.31
2022-11-27T07:42:44.056Z,963.25
2022-11-27T07:43:44.038Z,963.29
2022-11-27T07:44:44.018Z,963.26
2022-11-27T07:45:44.068Z,963.27
2022-11-27T07:46:43.980Z,963.26
2022-11-27T07:47:43.964Z,963.21
2022-11-27T07:48:43.946Z,963.22
2022-11-27T07:49:49.862Z,963.23
2022-11-27T07:50:44.024Z,963.22
2022-11-27T07:51:43.887Z,963.23
2022-11-27T07:52:43.865Z,963.23
2022-11-27T07:53:43.849Z,963.19
2022-11-27T07:54:43.829Z,963.19
2022-11-27T07:55:43.807Z,963.14
2022-11-27T07:56:43.789Z,963.16
2022-11-27T07:57:43.770Z,963.15
2022-11-27T07:58:43.750Z,963.15
2022-11-27T07:59:47.232Z,963.13
2022-11-27T08:00:43.767Z,963.16
2022-11-27T08:01:43.696Z,963.13
2022-11-27T08:02:43.674Z,963.1
2022-11-27T08:03:43.655Z,963.15
2022-11-27T08:04:44.016Z,963.11
2022-11-27T08:05:43.617Z,963.18
2022-11-27T08:06:43.723Z,963.16
2022-11-27T08:07:43.718Z,963.19
2022-11-27T08:08:43.565Z,963.24
2022-11-27T08:09:43.539Z,963.21
2022-11-27T08:10:43.523Z,963.15
2022-11-27T08:11:43.501Z,963.12
2022-11-27T08:12:43.483Z,963.17
2022-11-27T08:13:43.468Z,963.12
2022-11-27T08:14:43.531Z,963.14
2022-11-27T08:15:43.427Z,963.17
2022-11-27T08:16:43.432Z,963.15
2022-11-27T08:17:43.384Z,963.12
2022-11-27T08:18:43.367Z,963.08
2022-11-27T08:19:43.347Z,963.07
2022-11-27T08:20:43.329Z,963.07
2022-11-27T08:21:43.308Z,963.08
2022-11-27T08:22:43.419Z,963.13
2022-11-27T08:23:43.270Z,963.09
2022-11-27T08:24:43.442Z,963.06
2022-11-27T08:25:43.232Z,963.14
2022-11-27T08:26:43.950Z,963.08
2022-11-27T08:27:43.930Z,963.11
2022-11-27T08:28:43.911Z,963.11
2022-11-27T08:29:43.891Z,963.14
2022-11-27T08:30:43.874Z,963.11
2022-11-27T08:31:43.949Z,963.16
2022-11-27T08:32:43.834Z,963.12
2022-11-27T08:33:43.815Z,963.06
2022-11-27T08:34:43.900Z,963.11
2022-11-27T08:35:43.776Z,963.16
2022-11-27T08:36:43.759Z,963.14
2022-11-27T08:37:43.739Z,963.18
2022-11-27T08:38:43.836Z,963.18
2022-11-27T08:39:43.702Z,963.18
2022-11-27T08:40:43.684Z,963.2
2022-11-27T08:41:43.665Z,963.21
2022-11-27T08:42:43.644Z,963.17
2022-11-27T08:43:43.894Z,963.2
2022-11-27T08:44:43.956Z,963.21
2022-11-27T08:45:43.903Z,963.22
2022-11-27T08:46:43.839Z,963.19
2022-11-27T08:47:43.820Z,963.19
2022-11-27T08:48:43.802Z,963.2
2022-11-27T08:49:46.149Z,963.19
2022-11-27T08:50:43.766Z,963.15
2022-11-27T08:51:43.743Z,963.23
2022-11-27T08:52:43.725Z,963.21
2022-11-27T08:53:43.706Z,963.24
2022-11-27T08:54:43.814Z,963.24
2022-11-27T08:55:43.668Z,963.18
2022-11-27T08:56:43.649Z,963.11
2022-11-27T08:57:43.634Z,963.08
2022-11-27T08:58:43.612Z,963.11
2022-11-27T08:59:43.594Z,963.11
2022-11-27T09:00:43.591Z,963.1
2022-11-27T09:01:43.560Z,963.11
2022-11-27T09:02:43.540Z,963.08
2022-11-27T09:03:43.563Z,963.1
2022-11-27T09:04:43.776Z,963.13
2022-11-27T09:05:43.484Z,963.06
2022-11-27T09:06:43.471Z,963.09
2022-11-27T09:07:43.513Z,963.01
2022-11-27T09:08:43.426Z,963.04
2022-11-27T09:09:43.408Z,963.03
2022-11-27T09:10:43.507Z,963
2022-11-27T09:11:43.371Z,963.02
2022-11-27T09:12:43.760Z,963.01
2022-11-27T09:13:43.332Z,962.96
2022-11-27T09:14:43.517Z,962.99
2022-11-27T09:15:43.298Z,962.92
2022-11-27T09:16:43.309Z,962.95
2022-11-27T09:17:43.259Z,962.94
2022-11-27T09:18:43.239Z,962.97
2022-11-27T09:19:43.225Z,962.96
2022-11-27T09:20:43.203Z,962.89
2022-11-27T09:21:43.185Z,962.9
2022-11-27T09:22:43.165Z,962.84
2022-11-27T09:23:43.150Z,962.84
2022-11-27T09:24:43.371Z,962.81
2022-11-27T09:25:43.112Z,962.78
2022-11-27T09:26:43.217Z,962.85
2022-11-27T09:27:43.077Z,962.86
2022-11-27T09:28:43.055Z,962.88
2022-11-27T09:29:43.037Z,962.85
2022-11-27T09:30:43.017Z,962.83
2022-11-27T09:31:43.041Z,962.8
2022-11-27T09:32:42.979Z,962.79
2022-11-27T09:33:42.963Z,962.8
2022-11-27T09:34:43.362Z,962.85
2022-11-27T09:35:42.928Z,962.83
2022-11-27T09:36:42.908Z,962.85
2022-11-27T09:37:42.890Z,962.81
2022-11-27T09:38:42.870Z,962.85
2022-11-27T09:39:42.854Z,962.85
2022-11-27T09:40:42.833Z,962.83
2022-11-27T09:41:42.816Z,962.85
2022-11-27T09:42:42.916Z,962.87
2022-11-27T09:43:42.779Z,962.89
2022-11-27T09:44:43.117Z,962.88
2022-11-27T09:45:43.208Z,962.89
2022-11-27T09:46:43.160Z,962.89
2022-11-27T09:47:43.142Z,962.86
2022-11-27T09:48:43.123Z,962.87
2022-11-27T09:49:43.104Z,962.84
2022-11-27T09:50:43.088Z,962.78
2022-11-27T09:51:43.067Z,962.82
2022-11-27T09:52:43.054Z,962.81
2022-11-27T09:53:43.030Z,962.74
2022-11-27T09:54:45.775Z,962.79
2022-11-27T09:55:42.993Z,962.82
2022-11-27T09:56:42.976Z,962.83
2022-11-27T09:57:42.959Z,962.8
2022-11-27T09:58:43.057Z,962.83
2022-11-27T09:59:42.921Z,962.83
2022-11-27T10:00:42.904Z,962.85
2022-11-27T10:01:47.573Z,962.76
2022-11-27T10:02:43.045Z,962.76
2022-11-27T10:03:42.848Z,962.7
2022-11-27T10:04:58.297Z,962.68
2022-11-27T10:05:42.812Z,962.68
2022-11-27T10:06:42.798Z,962.71
2022-11-27T10:07:42.821Z,962.71
2022-11-27T10:08:42.759Z,962.69
2022-11-27T10:09:42.743Z,962.66
2022-11-27T10:10:42.722Z,962.63
2022-11-27T10:11:42.703Z,962.6
2022-11-27T10:12:42.685Z,962.63
2022-11-27T10:13:42.670Z,962.58
2022-11-27T10:14:42.957Z,962.62
2022-11-27T10:15:42.630Z,962.63
2022-11-27T10:16:44.660Z,962.61
2022-11-27T10:17:42.594Z,962.55
2022-11-27T10:18:42.581Z,962.58
2022-11-27T10:19:42.560Z,962.59
2022-11-27T10:20:42.545Z,962.56
2022-11-27T10:21:42.533Z,962.5
2022-11-27T10:22:42.507Z,962.51
2022-11-27T10:23:42.490Z,962.46
2022-11-27T10:24:42.700Z,962.49
2022-11-27T10:25:42.464Z,962.52
2022-11-27T10:26:42.448Z,962.42
2022-11-27T10:27:42.429Z,962.45
2022-11-27T10:28:42.413Z,962.47
2022-11-27T10:29:45.740Z,962.43
2022-11-27T10:30:42.495Z,962.43
2022-11-27T10:31:42.405Z,962.44
2022-11-27T10:32:57.652Z,962.42
2022-11-27T10:33:42.325Z,962.44
2022-11-27T10:34:42.482Z,962.41
2022-11-27T10:35:42.287Z,962.44
2022-11-27T10:36:42.270Z,962.43
2022-11-27T10:37:42.252Z,962.45
2022-11-27T10:38:42.234Z,962.42
2022-11-27T10:39:42.217Z,962.39
2022-11-27T10:40:42.199Z,962.34
2022-11-27T10:41:49.082Z,962.32
2022-11-27T10:42:42.166Z,962.3
2022-11-27T10:43:42.149Z,962.31
2022-11-27T10:44:42.514Z,962.35
2022-11-27T10:45:42.188Z,962.37
2022-11-27T10:46:42.215Z,962.35
2022-11-27T10:47:42.080Z,962.32
2022-11-27T10:48:42.061Z,962.34
2022-11-27T10:49:42.054Z,962.32
2022-11-27T10:50:42.025Z,962.27
2022-11-27T10:51:42.010Z,962.3
2022-11-27T10:52:41.990Z,962.31
2022-11-27T10:53:41.976Z,962.3
2022-11-27T10:54:42.082Z,962.31
2022-11-27T10:55:41.942Z,962.32
2022-11-27T10:56:41.922Z,962.32
2022-11-27T10:57:41.908Z,962.29
2022-11-27T10:58:41.887Z,962.28
2022-11-27T10:59:41.872Z,962.34
2022-11-27T11:00:41.909Z,962.3
2022-11-27T11:01:41.917Z,962.32
2022-11-27T11:02:41.996Z,962.3
2022-11-27T11:03:41.805Z,962.29
2022-11-27T11:04:41.785Z,962.24
2022-11-27T11:06:19.016Z,962.3
2022-11-27T11:06:58.287Z,962.23
2022-11-27T11:07:58.328Z,962.24
2022-11-27T11:09:01.285Z,962.24
2022-11-27T11:09:58.238Z,962.26
2022-11-27T11:10:58.218Z,962.19
2022-11-27T11:11:58.205Z,962.18
2022-11-27T11:12:58.185Z,962.2
2022-11-27T11:13:58.171Z,962.21
2022-11-27T11:14:58.155Z,962.22
2022-11-27T11:15:58.137Z,962.17
2022-11-27T11:16:58.176Z,962.17
2022-11-27T11:17:58.224Z,962.18
2022-11-27T11:18:58.085Z,962.12
2022-11-27T11:19:58.071Z,962.12
2022-11-27T11:20:58.054Z,962.09
2022-11-27T11:21:58.035Z,962.08
2022-11-27T11:22:58.020Z,962.04
2022-11-27T11:23:58.004Z,962.03
2022-11-27T11:24:57.988Z,962.01
2022-11-27T11:25:57.969Z,961.93
2022-11-27T11:26:57.951Z,961.94
2022-11-27T11:27:58.792Z,961.87
2022-11-27T11:28:58.769Z,961.87
2022-11-27T11:29:58.755Z,961.87
2022-11-27T11:30:58.737Z,961.88
2022-11-27T11:31:58.778Z,961.82
2022-11-27T11:32:58.704Z,961.82
2022-11-27T11:33:58.821Z,961.83
2022-11-27T11:35:01.042Z,961.77
2022-11-27T11:35:58.652Z,961.77
2022-11-27T11:36:58.638Z,961.77
2022-11-27T11:37:58.619Z,961.73
2022-11-27T11:38:58.606Z,961.76
2022-11-27T11:39:58.587Z,961.72
2022-11-27T11:40:58.571Z,961.75
2022-11-27T11:41:58.554Z,961.71
2022-11-27T11:42:58.538Z,961.73
2022-11-27T11:43:58.521Z,961.69
2022-11-27T11:44:58.505Z,961.68
2022-11-27T11:45:58.551Z,961.64
2022-11-27T11:46:58.472Z,961.67
2022-11-27T11:47:58.453Z,961.66
2022-11-27T11:48:59.116Z,961.68
2022-11-27T11:49:59.884Z,961.66
2022-11-27T11:50:59.752Z,961.68
2022-11-27T11:51:59.734Z,961.65
2022-11-27T11:52:59.720Z,961.67
2022-11-27T11:53:59.701Z,961.64
2022-11-27T11:54:59.686Z,961.66
2022-11-27T11:55:59.668Z,961.65
2022-11-27T11:56:59.654Z,961.64
2022-11-27T11:57:59.634Z,961.56
2022-11-27T11:58:59.619Z,961.55
2022-11-27T11:59:59.601Z,961.51
2022-11-27T12:01:25.260Z,961.5
2022-11-27T12:01:59.637Z,961.5
2022-11-27T12:02:59.555Z,961.38
2022-11-27T12:03:59.595Z,961.44
2022-11-27T12:04:59.562Z,961.38
2022-11-27T12:05:59.621Z,961.4
2022-11-27T12:06:59.487Z,961.38
2022-11-27T12:07:59.563Z,961.41
2022-11-27T12:08:59.454Z,961.42
2022-11-27T12:09:59.435Z,961.41
2022-11-27T12:10:59.420Z,961.44
2022-11-27T12:11:59.401Z,961.42
2022-11-27T12:12:59.386Z,961.44
2022-11-27T12:13:59.369Z,961.4
2022-11-27T12:14:59.353Z,961.37
2022-11-27T12:15:59.333Z,961.38
2022-11-27T12:16:59.329Z,961.41
2022-11-27T12:17:59.302Z,961.41
2022-11-27T12:18:59.286Z,961.42
2022-11-27T12:19:59.269Z,961.4
2022-11-27T12:20:59.253Z,961.41
2022-11-27T12:21:59.357Z,961.38
2022-11-27T12:22:59.217Z,961.38
2022-11-27T12:23:59.204Z,961.44
2022-11-27T12:24:59.184Z,961.39
2022-11-27T12:25:59.174Z,961.39
2022-11-27T12:26:59.153Z,961.4
2022-11-27T12:27:59.138Z,961.3
2022-11-27T12:28:59.679Z,961.26
2022-11-27T12:29:59.107Z,961.23
2022-11-27T12:30:59.086Z,961.16
2022-11-27T12:31:59.134Z,961.07
2022-11-27T12:32:59.052Z,961.03
2022-11-27T12:33:59.037Z,961.04
2022-11-27T12:34:59.019Z,961.04
2022-11-27T12:35:59.005Z,961.03
2022-11-27T12:36:58.989Z,961
2022-11-27T12:37:59.091Z,961
2022-11-27T12:38:58.954Z,960.98
2022-11-27T12:39:58.937Z,960.98
2022-11-27T12:40:58.919Z,960.94
2022-11-27T12:41:58.905Z,960.98
2022-11-27T12:42:58.887Z,961
2022-11-27T12:43:58.873Z,960.96
2022-11-27T12:44:58.853Z,960.94
2022-11-27T12:45:58.941Z,960.89
2022-11-27T12:46:58.820Z,960.9
2022-11-27T12:47:58.806Z,960.88